Time;durP1;ratioP1;P1;durP2;ratioP2;P2;SDS_P1;SDS_P2;PMS_P1;PMS_P2;Temp;Humidity;BMP_temperature;BMP_pressure;BME280_temperature;BME280_humidity;BME280_pressure;Samples;Min_cycle;Max_cycle;Signal;HPM_P1;HPM_P2
2023/10/30 00:01:36;;;;;;;1.42;0.73;;;12.60;99.90;;;;;;5091514;28;20091;-72
2023/10/30 00:04:02;;;;;;;4.32;1.05;;;12.60;99.90;;;;;;5092179;28;20059;-72
2023/10/30 00:06:27;;;;;;;6.65;1.38;;;12.60;99.90;;;;;;5091228;28;20063;-72
2023/10/30 00:08:53;;;;;;;0.52;0.45;;;12.60;99.90;;;;;;5093230;28;20054;-72
2023/10/30 00:11:19;;;;;;;0.63;0.63;;;12.50;99.90;;;;;;5091503;28;20032;-73
2023/10/30 00:13:45;;;;;;;3.33;1.13;;;12.60;99.90;;;;;;5093167;28;20028;-72
2023/10/30 00:16:10;;;;;;;3.40;0.70;;;12.50;99.90;;;;;;5090763;28;20034;-71
2023/10/30 00:18:41;;;;;;;2.15;0.95;;;12.60;99.90;;;;;;5091760;28;20101;-72
2023/10/30 00:21:11;;;;;;;1.77;0.83;;;12.50;99.90;;;;;;5091935;28;20334;-72
2023/10/30 00:23:37;;;;;;;3.55;0.70;;;12.50;99.90;;;;;;5094053;28;20063;-72
2023/10/30 00:26:04;;;;;;;0.20;0.20;;;12.50;99.90;;;;;;5089543;28;20472;-71
2023/10/30 00:28:34;;;;;;;1.15;0.88;;;12.50;99.90;;;;;;5071051;28;20029;-72
2023/10/30 00:31:00;;;;;;;0.90;0.50;;;12.50;99.90;;;;;;5084865;28;20033;-72
2023/10/30 00:33:26;;;;;;;0.80;0.60;;;12.50;99.90;;;;;;5091487;28;20032;-72
2023/10/30 00:35:52;;;;;;;1.10;0.90;;;12.50;99.90;;;;;;5091408;28;20073;-72
2023/10/30 00:38:18;;;;;;;2.08;1.42;;;12.50;99.90;;;;;;5090602;28;20031;-72
2023/10/30 00:40:43;;;;;;;1.48;0.75;;;12.50;99.90;;;;;;5090981;28;20036;-72
2023/10/30 00:43:10;;;;;;;0.75;0.50;;;12.50;99.90;;;;;;5089664;28;20067;-72
2023/10/30 00:45:36;;;;;;;0.88;0.30;;;12.50;99.90;;;;;;5090635;28;20101;-72
2023/10/30 00:48:01;;;;;;;0.65;0.30;;;12.50;99.90;;;;;;5090889;28;20054;-72
2023/10/30 00:50:27;;;;;;;0.20;0.20;;;12.50;99.90;;;;;;5090545;28;20097;-72
2023/10/30 00:52:53;;;;;;;0.70;0.40;;;12.50;99.90;;;;;;5091363;28;20047;-72
2023/10/30 00:55:19;;;;;;;3.13;0.65;;;12.50;99.90;;;;;;5091625;28;20035;-72
2023/10/30 00:57:44;;;;;;;0.55;0.52;;;12.50;99.90;;;;;;5090899;28;20688;-72
2023/10/30 01:00:11;;;;;;;7.25;0.60;;;12.50;99.90;;;;;;5086173;28;20036;-72
2023/10/30 01:02:37;;;;;;;0.77;0.52;;;12.50;99.90;;;;;;5087570;28;20033;-72
2023/10/30 01:05:03;;;;;;;0.60;0.32;;;12.50;99.90;;;;;;5087035;28;20159;-71
2023/10/30 01:07:29;;;;;;;0.28;0.28;;;12.50;99.90;;;;;;5100103;28;20027;-71
2023/10/30 01:09:56;;;;;;;0.63;0.38;;;12.50;99.90;;;;;;5091571;28;20491;-73
2023/10/30 01:12:21;;;;;;;1.33;0.57;;;12.50;99.90;;;;;;5073932;28;20020;-72
2023/10/30 01:14:48;;;;;;;1.00;0.40;;;12.50;99.90;;;;;;5090430;28;20020;-71
2023/10/30 01:17:14;;;;;;;1.50;0.77;;;12.50;99.90;;;;;;5091656;28;20099;-72
2023/10/30 01:19:39;;;;;;;0.90;0.63;;;12.50;99.90;;;;;;5051567;28;20583;-72
2023/10/30 01:22:05;;;;;;;3.25;0.65;;;12.50;99.90;;;;;;5069450;28;20123;-72
2023/10/30 01:24:31;;;;;;;1.00;0.38;;;12.50;99.90;;;;;;5051531;28;20043;-72
2023/10/30 01:26:57;;;;;;;8.77;1.75;;;12.40;99.90;;;;;;5051904;28;20032;-72
2023/10/30 01:29:22;;;;;;;2.65;1.30;;;12.40;99.90;;;;;;5051531;28;20071;-72
2023/10/30 01:31:48;;;;;;;0.80;0.50;;;12.40;99.90;;;;;;5049306;28;20059;-72
2023/10/30 01:34:14;;;;;;;0.20;0.20;;;12.40;99.90;;;;;;5067236;28;20037;-72
2023/10/30 01:36:39;;;;;;;2.13;1.05;;;12.40;99.90;;;;;;5068777;28;20127;-72
2023/10/30 01:39:05;;;;;;;0.40;0.35;;;12.30;99.90;;;;;;5052347;28;20098;-72
2023/10/30 01:41:31;;;;;;;0.20;0.10;;;12.30;99.90;;;;;;5068554;28;20435;-72
2023/10/30 01:43:56;;;;;;;0.13;0.13;;;12.30;99.90;;;;;;5069510;28;20037;-72
2023/10/30 01:46:22;;;;;;;0.30;0.13;;;12.30;99.90;;;;;;5051220;28;20083;-72
2023/10/30 01:48:48;;;;;;;0.75;0.38;;;12.30;99.90;;;;;;5070584;28;20041;-72
2023/10/30 01:51:17;;;;;;;0.10;0.10;;;12.30;99.90;;;;;;5061528;28;20420;-72
2023/10/30 01:53:44;;;;;;;6.82;0.52;;;12.30;99.90;;;;;;5094641;28;20035;-72
2023/10/30 01:56:10;;;;;;;1.20;0.45;;;12.30;99.90;;;;;;5088495;28;20024;-72
2023/10/30 01:58:36;;;;;;;0.25;0.25;;;12.30;99.90;;;;;;5094027;28;20023;-72
2023/10/30 02:01:03;;;;;;;3.70;0.10;;;12.20;99.90;;;;;;5089092;28;20109;-72
2023/10/30 02:03:28;;;;;;;0.43;0.20;;;12.20;99.90;;;;;;5094293;28;20050;-72
2023/10/30 02:05:54;;;;;;;0.00;0.00;;;12.20;99.90;;;;;;5082851;28;20824;-72
2023/10/30 02:08:21;;;;;;;0.98;0.43;;;12.20;99.90;;;;;;5095103;28;20032;-72
2023/10/30 02:10:47;;;;;;;0.47;0.32;;;12.20;99.90;;;;;;5090251;28;20025;-72
2023/10/30 02:13:13;;;;;;;4.38;0.45;;;12.10;99.90;;;;;;5093524;28;20031;-72
2023/10/30 02:15:39;;;;;;;0.20;0.20;;;12.10;99.90;;;;;;5090064;28;20030;-72
2023/10/30 02:18:05;;;;;;;0.38;0.10;;;12.10;99.90;;;;;;5091080;28;20012;-72
2023/10/30 02:20:33;;;;;;;7.38;0.30;;;12.10;99.90;;;;;;5089823;28;20054;-72
2023/10/30 02:22:58;;;;;;;0.60;0.20;;;12.10;99.90;;;;;;5073600;28;20028;-72
2023/10/30 02:25:25;;;;;;;0.43;0.43;;;12.10;99.90;;;;;;5093166;28;20361;-72
2023/10/30 02:27:52;;;;;;;1.15;1.05;;;12.10;99.90;;;;;;5093596;28;20063;-72
2023/10/30 02:30:18;;;;;;;0.52;0.30;;;12.00;99.90;;;;;;5093895;28;20028;-72
2023/10/30 02:32:45;;;;;;;6.82;0.85;;;12.00;99.90;;;;;;5095304;28;20039;-72
2023/10/30 02:35:16;;;;;;;4.15;0.68;;;12.00;99.90;;;;;;5086864;28;20036;-72
2023/10/30 02:37:43;;;;;;;1.55;0.63;;;12.00;99.90;;;;;;5093084;28;20016;-72
2023/10/30 02:40:10;;;;;;;2.45;0.32;;;11.90;99.90;;;;;;5093063;28;20028;-72
2023/10/30 02:42:36;;;;;;;0.95;0.40;;;11.90;99.90;;;;;;5076789;28;20028;-72
2023/10/30 02:45:03;;;;;;;1.65;0.77;;;11.90;99.90;;;;;;5093118;28;20445;-72
2023/10/30 02:47:30;;;;;;;0.10;0.10;;;11.90;99.90;;;;;;5094595;28;20360;-72
2023/10/30 02:49:56;;;;;;;2.33;1.00;;;11.90;99.90;;;;;;5092552;28;20032;-72
2023/10/30 02:52:22;;;;;;;0.80;0.28;;;11.80;99.90;;;;;;5093105;28;20024;-73
2023/10/30 02:54:48;;;;;;;11.70;1.45;;;11.80;99.90;;;;;;5092933;28;20419;-72
2023/10/30 02:57:14;;;;;;;1.63;0.55;;;11.80;99.90;;;;;;5092676;28;20019;-73
2023/10/30 02:59:40;;;;;;;0.40;0.40;;;11.80;99.90;;;;;;5090019;28;20086;-72
2023/10/30 03:02:07;;;;;;;0.65;0.52;;;11.80;99.90;;;;;;5073731;28;20124;-72
2023/10/30 03:04:33;;;;;;;0.52;0.20;;;11.80;99.90;;;;;;5089836;28;20712;-72
2023/10/30 03:06:59;;;;;;;0.10;0.10;;;11.80;99.90;;;;;;5072528;28;20341;-73
2023/10/30 03:09:32;;;;;;;0.13;0.10;;;11.80;99.90;;;;;;5082854;28;20030;-72
2023/10/30 03:11:58;;;;;;;5.95;0.47;;;11.80;99.90;;;;;;5089491;28;20475;-72
2023/10/30 03:14:24;;;;;;;0.43;0.20;;;11.80;99.90;;;;;;5092715;28;20019;-72
2023/10/30 03:16:50;;;;;;;0.10;0.10;;;11.80;99.90;;;;;;5088970;28;20032;-73
2023/10/30 03:19:16;;;;;;;1.35;0.20;;;11.80;99.90;;;;;;5090915;28;20113;-72
2023/10/30 03:21:42;;;;;;;0.10;0.10;;;11.80;99.90;;;;;;5092375;28;20475;-72
2023/10/30 03:24:09;;;;;;;0.20;0.20;;;11.80;99.90;;;;;;5093604;28;20038;-72
2023/10/30 03:26:35;;;;;;;2.90;0.75;;;11.80;99.90;;;;;;5092267;28;20024;-72
2023/10/30 03:29:00;;;;;;;0.25;0.25;;;11.80;99.90;;;;;;5092286;28;20024;-72
2023/10/30 03:31:27;;;;;;;0.10;0.10;;;11.80;99.90;;;;;;5092063;28;20052;-72
2023/10/30 03:33:53;;;;;;;0.40;0.40;;;11.80;99.90;;;;;;5092691;28;20012;-72
2023/10/30 03:36:23;;;;;;;3.83;0.75;;;11.80;99.90;;;;;;5091136;28;21615;-73
2023/10/30 03:38:53;;;;;;;0.00;0.00;;;11.80;99.90;;;;;;5088683;28;20059;-72
2023/10/30 03:41:19;;;;;;;1.45;0.13;;;11.80;99.90;;;;;;5075309;28;20056;-72
2023/10/30 03:43:45;;;;;;;4.53;0.85;;;11.80;99.90;;;;;;5092417;28;20089;-72
2023/10/30 03:46:11;;;;;;;2.25;0.32;;;11.80;99.90;;;;;;5090988;28;20665;-72
2023/10/30 03:48:37;;;;;;;0.80;0.80;;;11.80;99.90;;;;;;5092183;28;20144;-72
2023/10/30 03:51:05;;;;;;;0.88;0.22;;;11.80;99.90;;;;;;5088934;28;20111;-72
2023/10/30 03:53:32;;;;;;;0.35;0.35;;;11.80;99.90;;;;;;5092438;28;20449;-72
2023/10/30 03:55:58;;;;;;;4.90;0.35;;;11.80;99.90;;;;;;5088053;28;20472;-72
2023/10/30 03:58:26;;;;;;;0.88;0.68;;;11.70;99.90;;;;;;5075200;28;20043;-72
2023/10/30 04:00:52;;;;;;;3.03;0.63;;;11.80;99.90;;;;;;5091978;28;20027;-72
2023/10/30 04:03:18;;;;;;;5.82;0.85;;;11.70;99.90;;;;;;5093535;28;20074;-72
2023/10/30 04:05:44;;;;;;;6.03;1.20;;;11.80;99.90;;;;;;5090330;28;20426;-72
2023/10/30 04:08:10;;;;;;;0.00;0.00;;;11.80;99.90;;;;;;5091008;28;20075;-71
2023/10/30 04:10:35;;;;;;;0.32;0.30;;;11.80;99.90;;;;;;5069894;28;20036;-71
2023/10/30 04:13:01;;;;;;;2.40;1.02;;;11.80;99.90;;;;;;5053795;28;20031;-71
2023/10/30 04:15:27;;;;;;;0.00;0.00;;;11.80;99.90;;;;;;5090665;28;20032;-71
2023/10/30 04:17:54;;;;;;;2.03;0.73;;;11.80;99.90;;;;;;5090791;28;20036;-72
2023/10/30 04:20:20;;;;;;;4.38;0.25;;;11.80;99.90;;;;;;5090665;28;20075;-72
2023/10/30 04:22:49;;;;;;;0.52;0.20;;;11.80;99.90;;;;;;5073773;28;20728;-72
2023/10/30 04:25:17;;;;;;;0.20;0.15;;;11.80;99.90;;;;;;5073580;28;20051;-72
2023/10/30 04:27:42;;;;;;;0.52;0.50;;;11.80;99.90;;;;;;5053868;28;20028;-72
2023/10/30 04:30:09;;;;;;;0.00;0.00;;;11.80;99.90;;;;;;5087726;28;20480;-72
2023/10/30 04:32:35;;;;;;;0.28;0.20;;;11.80;99.90;;;;;;5073699;28;20166;-72
2023/10/30 04:35:01;;;;;;;0.30;0.30;;;11.80;99.90;;;;;;5090278;28;20516;-74
2023/10/30 04:37:26;;;;;;;0.30;0.25;;;11.80;99.90;;;;;;5084200;28;20059;-72
2023/10/30 04:39:52;;;;;;;0.00;0.00;;;11.80;99.90;;;;;;5085447;28;20036;-71
2023/10/30 04:42:18;;;;;;;6.03;0.15;;;11.80;99.90;;;;;;5074068;28;20028;-72
2023/10/30 04:44:44;;;;;;;2.88;0.17;;;11.80;99.90;;;;;;5092587;28;20016;-72
2023/10/30 04:47:10;;;;;;;0.10;0.05;;;11.80;99.90;;;;;;5091017;28;20038;-71
2023/10/30 04:49:37;;;;;;;2.55;0.32;;;11.70;99.90;;;;;;5091666;28;20384;-70
2023/10/30 04:52:04;;;;;;;0.03;0.03;;;11.70;99.90;;;;;;5091041;28;20027;-72
2023/10/30 04:54:29;;;;;;;0.28;0.20;;;11.70;99.90;;;;;;5088277;28;20028;-72
2023/10/30 04:56:55;;;;;;;0.10;0.10;;;11.70;99.90;;;;;;5087948;28;20028;-72
2023/10/30 04:59:21;;;;;;;3.30;0.20;;;11.70;99.90;;;;;;5092198;28;20444;-72
2023/10/30 05:01:46;;;;;;;0.98;0.90;;;11.70;99.90;;;;;;5091076;28;20491;-72
2023/10/30 05:04:15;;;;;;;0.03;0.03;;;11.70;99.90;;;;;;5091893;28;20107;-72
2023/10/30 05:06:40;;;;;;;2.28;0.30;;;11.70;99.90;;;;;;5083067;28;20028;-70
2023/10/30 05:09:06;;;;;;;0.93;0.70;;;11.70;99.90;;;;;;5088340;28;20046;-71
2023/10/30 05:11:39;;;;;;;0.40;0.40;;;11.70;99.90;;;;;;5087979;28;20063;-70
2023/10/30 05:14:06;;;;;;;0.00;0.00;;;11.70;99.90;;;;;;5086595;28;20047;-72
2023/10/30 05:16:31;;;;;;;0.80;0.30;;;11.70;99.90;;;;;;5094503;28;20085;-71
2023/10/30 05:18:58;;;;;;;0.20;0.20;;;11.70;99.90;;;;;;5112360;28;20028;-72
2023/10/30 05:21:23;;;;;;;5.78;0.20;;;11.70;99.90;;;;;;5091631;28;20067;-73
2023/10/30 05:23:49;;;;;;;2.47;1.25;;;11.70;99.90;;;;;;5106160;28;20062;-72
2023/10/30 05:26:15;;;;;;;0.20;0.20;;;11.70;99.90;;;;;;5106349;28;20088;-73
2023/10/30 05:28:41;;;;;;;1.70;1.08;;;11.80;99.90;;;;;;5112399;28;20095;-73
2023/10/30 05:31:07;;;;;;;0.82;0.40;;;11.80;99.90;;;;;;5098317;28;20020;-72
2023/10/30 05:33:34;;;;;;;2.72;0.75;;;11.80;99.90;;;;;;5112361;28;20027;-71
2023/10/30 05:36:02;;;;;;;2.20;1.52;;;11.80;99.90;;;;;;5093499;28;20024;-72
2023/10/30 05:38:27;;;;;;;0.93;0.85;;;11.90;99.90;;;;;;5085866;28;20031;-73
2023/10/30 05:40:53;;;;;;;0.10;0.10;;;11.90;99.90;;;;;;5096780;28;20020;-72
2023/10/30 05:43:19;;;;;;;0.10;0.10;;;11.90;99.90;;;;;;5089026;28;20039;-71
2023/10/30 05:45:49;;;;;;;2.05;0.50;;;11.90;99.90;;;;;;5069104;28;20021;-67
2023/10/30 05:48:15;;;;;;;0.28;0.20;;;11.90;99.90;;;;;;5086917;28;20024;-68
2023/10/30 05:50:41;;;;;;;0.32;0.17;;;11.80;99.90;;;;;;5095576;28;20096;-69
2023/10/30 05:53:07;;;;;;;0.40;0.30;;;11.80;99.90;;;;;;5110795;28;20023;-70
2023/10/30 05:55:33;;;;;;;0.22;0.22;;;11.80;99.90;;;;;;5094002;28;20021;-69
2023/10/30 05:57:59;;;;;;;0.43;0.22;;;11.90;99.90;;;;;;5090146;28;20024;-69
2023/10/30 06:00:25;;;;;;;1.08;0.65;;;11.90;99.90;;;;;;5106962;28;20070;-69
2023/10/30 06:02:51;;;;;;;0.40;0.40;;;11.90;99.90;;;;;;5089597;28;20043;-69
2023/10/30 06:05:18;;;;;;;0.30;0.20;;;11.80;99.90;;;;;;5103135;28;20067;-69
2023/10/30 06:07:45;;;;;;;0.17;0.15;;;11.80;99.90;;;;;;5107169;28;20059;-70
2023/10/30 06:10:11;;;;;;;2.05;0.80;;;11.80;99.90;;;;;;5094404;28;20033;-69
2023/10/30 06:12:40;;;;;;;0.05;0.03;;;11.80;99.90;;;;;;5096789;28;20025;-69
2023/10/30 06:15:07;;;;;;;8.38;0.70;;;11.70;99.90;;;;;;5096429;28;20382;-69
2023/10/30 06:17:34;;;;;;;0.40;0.22;;;11.70;99.90;;;;;;5094734;28;20535;-70
2023/10/30 06:20:00;;;;;;;0.77;0.75;;;11.70;99.90;;;;;;5076115;28;20028;-70
2023/10/30 06:22:26;;;;;;;1.90;0.63;;;11.70;99.90;;;;;;5111476;28;20115;-69
2023/10/30 06:24:52;;;;;;;0.90;0.55;;;11.70;99.90;;;;;;5109433;28;20491;-69
2023/10/30 06:27:17;;;;;;;1.05;0.65;;;11.70;99.90;;;;;;5111159;28;20028;-69
2023/10/30 06:29:43;;;;;;;0.28;0.28;;;11.70;99.90;;;;;;5102698;28;20024;-69
2023/10/30 06:32:09;;;;;;;0.60;0.43;;;11.70;99.90;;;;;;5108463;28;20107;-71
2023/10/30 06:34:37;;;;;;;0.17;0.17;;;11.70;99.90;;;;;;5099301;28;20035;-72
2023/10/30 06:37:04;;;;;;;0.65;0.17;;;11.70;99.90;;;;;;5095016;28;20360;-71
2023/10/30 06:39:30;;;;;;;0.28;0.22;;;11.70;99.90;;;;;;5113760;28;20024;-70
2023/10/30 06:41:56;;;;;;;1.17;0.28;;;11.70;99.90;;;;;;5086955;28;20028;-69
2023/10/30 06:44:25;;;;;;;0.25;0.10;;;11.70;99.90;;;;;;5104108;28;20031;-69
2023/10/30 06:46:51;;;;;;;1.00;0.70;;;11.70;99.90;;;;;;5092265;28;20064;-69
2023/10/30 06:49:18;;;;;;;0.90;0.35;;;11.70;99.90;;;;;;5110272;28;20028;-69
2023/10/30 06:51:44;;;;;;;0.38;0.35;;;11.70;99.90;;;;;;5107502;28;20072;-70
2023/10/30 06:54:11;;;;;;;0.38;0.28;;;11.70;99.90;;;;;;5106471;28;20059;-70
2023/10/30 06:56:37;;;;;;;3.22;0.55;;;11.70;99.90;;;;;;5102841;28;20392;-69
2023/10/30 06:59:03;;;;;;;1.35;0.73;;;11.70;99.90;;;;;;5091271;28;20099;-71
2023/10/30 07:01:47;;;;;;;1.55;0.35;;;11.70;99.90;;;;;;5091823;28;20399;-68
2023/10/30 07:04:15;;;;;;;1.67;0.40;;;11.80;99.90;;;;;;5105117;28;20076;-68
2023/10/30 07:06:43;;;;;;;0.93;0.30;;;11.80;99.90;;;;;;5098246;28;20031;-70
2023/10/30 07:09:10;;;;;;;0.30;0.30;;;11.80;99.90;;;;;;5091323;28;20039;-69
2023/10/30 07:11:37;;;;;;;1.92;0.82;;;11.90;99.90;;;;;;5087660;28;20032;-68
2023/10/30 07:14:04;;;;;;;2.38;0.90;;;11.90;99.90;;;;;;5099975;28;20090;-68
2023/10/30 07:16:30;;;;;;;1.13;0.57;;;11.90;99.90;;;;;;5110625;28;20452;-70
2023/10/30 07:18:57;;;;;;;2.55;0.47;;;11.90;99.90;;;;;;5112647;27;20043;-68
2023/10/30 07:21:24;;;;;;;0.45;0.10;;;11.90;99.90;;;;;;5102229;28;20487;-69
2023/10/30 07:23:50;;;;;;;0.40;0.25;;;12.00;99.90;;;;;;5084690;28;20042;-75
2023/10/30 07:26:17;;;;;;;2.10;1.23;;;12.00;99.90;;;;;;5104216;28;20091;-77
2023/10/30 07:28:44;;;;;;;0.35;0.25;;;12.10;99.90;;;;;;5100450;28;20028;-77
2023/10/30 07:31:10;;;;;;;0.25;0.25;;;12.00;99.90;;;;;;5105823;28;20027;-78
2023/10/30 07:33:36;;;;;;;1.20;0.38;;;12.10;99.90;;;;;;5100437;28;20621;-77
2023/10/30 07:36:03;;;;;;;3.88;0.40;;;12.10;99.90;;;;;;5112839;28;20041;-78
2023/10/30 07:38:29;;;;;;;0.47;0.45;;;12.20;99.90;;;;;;5101006;28;20368;-74
2023/10/30 07:40:56;;;;;;;0.68;0.32;;;12.20;99.90;;;;;;5087333;28;20108;-77
2023/10/30 07:43:25;;;;;;;0.98;0.60;;;12.20;99.90;;;;;;5095955;28;20044;-75
2023/10/30 07:45:51;;;;;;;0.80;0.55;;;12.30;99.90;;;;;;5100094;28;20051;-77
2023/10/30 07:48:17;;;;;;;0.45;0.40;;;12.30;99.90;;;;;;5107359;28;20070;-77
2023/10/30 07:50:46;;;;;;;1.65;0.63;;;12.30;99.90;;;;;;5102704;28;20097;-79
2023/10/30 07:53:14;;;;;;;1.40;0.50;;;12.30;99.90;;;;;;5092963;28;20483;-76
2023/10/30 07:55:40;;;;;;;0.32;0.32;;;12.30;99.90;;;;;;5098032;28;20054;-68
2023/10/30 07:58:07;;;;;;;6.88;2.85;;;12.50;99.90;;;;;;5096665;28;20028;-71
2023/10/30 08:00:33;;;;;;;5.10;1.83;;;12.80;99.90;;;;;;5098632;28;20031;-71
2023/10/30 08:03:00;;;;;;;0.50;0.50;;;12.60;99.90;;;;;;5098141;28;20067;-70
2023/10/30 08:05:27;;;;;;;0.30;0.20;;;12.60;99.90;;;;;;5105569;28;20031;-69
2023/10/30 08:07:52;;;;;;;8.27;0.50;;;12.60;99.90;;;;;;5102157;28;20020;-71
2023/10/30 08:10:18;;;;;;;0.38;0.38;;;12.60;99.90;;;;;;5099342;28;20029;-70
2023/10/30 08:12:45;;;;;;;0.63;0.47;;;12.60;99.90;;;;;;5107820;28;20020;-70
2023/10/30 08:15:11;;;;;;;0.90;0.55;;;12.60;99.90;;;;;;5097441;28;20036;-70
2023/10/30 08:17:37;;;;;;;0.30;0.20;;;12.70;99.90;;;;;;5106227;28;20015;-69
2023/10/30 08:20:04;;;;;;;0.63;0.45;;;12.70;99.90;;;;;;5091151;28;20032;-69
2023/10/30 08:22:30;;;;;;;1.65;0.55;;;12.70;99.90;;;;;;5099314;28;20035;-69
2023/10/30 08:24:56;;;;;;;0.73;0.43;;;12.70;99.90;;;;;;5094309;28;20138;-69
2023/10/30 08:27:21;;;;;;;1.55;0.98;;;12.70;99.90;;;;;;5093555;28;20506;-69
2023/10/30 08:29:47;;;;;;;0.43;0.30;;;12.70;99.90;;;;;;5092327;28;20027;-69
2023/10/30 08:32:13;;;;;;;1.17;0.52;;;12.80;99.90;;;;;;5092492;28;20027;-69
2023/10/30 08:34:39;;;;;;;0.38;0.22;;;12.70;99.90;;;;;;5108089;28;20031;-68
2023/10/30 08:37:05;;;;;;;1.25;0.70;;;12.80;99.90;;;;;;5096432;28;20039;-69
2023/10/30 08:39:31;;;;;;;0.25;0.17;;;12.80;99.90;;;;;;5100973;28;20028;-69
2023/10/30 08:41:57;;;;;;;0.40;0.35;;;12.80;99.90;;;;;;5100286;28;20043;-70
2023/10/30 08:44:22;;;;;;;1.63;1.20;;;13.20;99.90;;;;;;5112137;28;20066;-71
2023/10/30 08:46:53;;;;;;;3.92;1.25;;;13.20;99.90;;;;;;5109034;28;20122;-70
2023/10/30 08:49:19;;;;;;;1.23;0.75;;;13.40;99.90;;;;;;5099714;28;20025;-70
2023/10/30 08:51:45;;;;;;;1.65;0.77;;;13.60;99.90;;;;;;5103814;28;20107;-70
2023/10/30 08:54:11;;;;;;;44.88;20.23;;;14.00;99.90;;;;;;5102922;28;20103;-69
2023/10/30 08:56:38;;;;;;;7.70;4.35;;;14.10;99.90;;;;;;5103041;28;20074;-71
2023/10/30 08:59:04;;;;;;;5.90;1.33;;;14.00;99.90;;;;;;5103990;28;20365;-69
2023/10/30 09:01:33;;;;;;;4.63;1.08;;;13.80;99.90;;;;;;5096007;28;20146;-69
2023/10/30 09:03:59;;;;;;;2.85;0.57;;;13.80;99.90;;;;;;5089214;28;20460;-71
2023/10/30 09:06:26;;;;;;;1.42;0.75;;;13.90;99.90;;;;;;5088349;28;20158;-70
2023/10/30 09:08:53;;;;;;;2.13;0.80;;;13.90;99.90;;;;;;5091856;28;20024;-71
2023/10/30 09:11:19;;;;;;;4.80;1.20;;;13.90;99.90;;;;;;5084941;28;20463;-70
2023/10/30 09:13:45;;;;;;;3.42;1.08;;;14.10;99.90;;;;;;5102612;28;20024;-71
2023/10/30 09:16:14;;;;;;;0.95;0.85;;;14.10;99.90;;;;;;5094293;28;20031;-70
2023/10/30 09:18:40;;;;;;;0.82;0.77;;;14.00;99.90;;;;;;5100443;28;20012;-71
2023/10/30 09:21:05;;;;;;;2.85;0.82;;;14.10;99.90;;;;;;5083741;28;20047;-71
2023/10/30 09:23:31;;;;;;;0.75;0.52;;;14.10;99.90;;;;;;5103215;28;20490;-72
2023/10/30 09:25:57;;;;;;;0.20;0.20;;;14.20;99.90;;;;;;5089069;28;20029;-71
2023/10/30 09:28:23;;;;;;;2.13;0.60;;;14.30;99.90;;;;;;5095427;28;20027;-70
2023/10/30 09:30:49;;;;;;;1.02;0.55;;;14.40;99.90;;;;;;5099621;28;20116;-71
2023/10/30 09:33:16;;;;;;;0.90;0.65;;;14.40;99.90;;;;;;5091640;28;20032;-70
2023/10/30 09:35:42;;;;;;;0.70;0.52;;;14.30;99.90;;;;;;5096810;28;20038;-69
2023/10/30 09:38:08;;;;;;;0.55;0.40;;;14.40;99.90;;;;;;5097216;28;20024;-70
2023/10/30 09:40:34;;;;;;;4.53;1.13;;;14.60;99.90;;;;;;5095231;28;20039;-69
2023/10/30 09:43:04;;;;;;;3.15;1.45;;;14.70;99.90;;;;;;5094975;28;20116;-70
2023/10/30 09:45:32;;;;;;;0.68;0.50;;;15.30;99.90;;;;;;5078488;28;20029;-70
2023/10/30 09:47:58;;;;;;;1.52;0.70;;;15.30;99.90;;;;;;5093872;28;20095;-69
2023/10/30 09:50:25;;;;;;;6.55;0.70;;;15.60;99.90;;;;;;5106590;28;20082;-70
2023/10/30 09:52:55;;;;;;;0.45;0.30;;;15.40;99.90;;;;;;5086924;28;20020;-69
2023/10/30 09:55:23;;;;;;;6.90;0.63;;;15.20;99.90;;;;;;5088075;28;20619;-71
2023/10/30 09:57:53;;;;;;;0.70;0.38;;;15.00;99.90;;;;;;5084695;28;20020;-73
2023/10/30 10:00:20;;;;;;;0.47;0.30;;;14.90;99.90;;;;;;5095199;28;20036;-72
2023/10/30 10:02:46;;;;;;;0.45;0.28;;;14.90;99.90;;;;;;5099625;28;20338;-70
2023/10/30 10:05:14;;;;;;;0.68;0.45;;;14.80;99.90;;;;;;5092105;28;20032;-69
2023/10/30 10:07:40;;;;;;;0.63;0.32;;;15.00;99.90;;;;;;5090992;28;20035;-69
2023/10/30 10:10:12;;;;;;;1.52;0.70;;;15.00;99.90;;;;;;5102395;28;20068;-69
2023/10/30 10:12:37;;;;;;;1.27;0.50;;;14.90;99.90;;;;;;5091387;28;20465;-69
2023/10/30 10:15:08;;;;;;;1.48;0.55;;;14.80;99.90;;;;;;5095308;28;20020;-69
2023/10/30 10:17:44;;;;;;;4.90;0.30;;;14.80;99.90;;;;;;5099225;28;20027;-69
2023/10/30 10:20:11;;;;;;;0.35;0.28;;;14.60;99.90;;;;;;5094663;28;20286;-69
2023/10/30 10:22:38;;;;;;;0.28;0.13;;;14.60;99.90;;;;;;5106750;28;20399;-70
2023/10/30 10:25:10;;;;;;;1.85;0.45;;;14.80;99.90;;;;;;5098863;28;20051;-71
2023/10/30 10:27:40;;;;;;;1.13;0.30;;;14.70;99.90;;;;;;5095818;28;20036;-70
2023/10/30 10:30:07;;;;;;;4.45;0.50;;;14.70;99.90;;;;;;5102008;28;20024;-70
2023/10/30 10:32:33;;;;;;;0.88;0.15;;;14.80;99.90;;;;;;5096052;28;20032;-70
2023/10/30 10:35:02;;;;;;;1.48;0.32;;;14.70;99.90;;;;;;5103320;28;20031;-68
2023/10/30 10:37:29;;;;;;;4.32;0.60;;;14.70;99.90;;;;;;5089016;28;20055;-69
2023/10/30 10:39:55;;;;;;;0.25;0.25;;;14.70;99.90;;;;;;5103159;28;20051;-70
2023/10/30 10:42:23;;;;;;;0.10;0.10;;;14.80;99.90;;;;;;5092594;28;20032;-70
2023/10/30 10:44:52;;;;;;;5.25;0.75;;;14.90;99.90;;;;;;5101013;28;20399;-68
2023/10/30 10:47:19;;;;;;;2.83;0.20;;;14.90;99.90;;;;;;5104738;28;20024;-68
2023/10/30 10:49:46;;;;;;;0.75;0.45;;;14.80;99.90;;;;;;5106315;28;20032;-69
2023/10/30 10:52:14;;;;;;;3.35;0.68;;;14.80;99.90;;;;;;5103193;28;20053;-69
2023/10/30 10:54:54;;;;;;;4.25;0.70;;;15.00;99.90;;;;;;5099360;28;20034;-67
2023/10/30 10:57:21;;;;;;;1.58;0.50;;;15.10;99.90;;;;;;5103787;28;20480;-68
2023/10/30 10:59:58;;;;;;;1.65;1.08;;;15.10;99.90;;;;;;5104686;28;20038;-69
2023/10/30 11:02:31;;;;;;;12.98;5.85;;;15.30;99.90;;;;;;5103667;28;20036;-69
2023/10/30 11:05:00;;;;;;;1.25;0.40;;;15.20;99.90;;;;;;5111620;28;20046;-69
2023/10/30 11:07:57;;;;;;;4.70;0.65;;;15.50;99.90;;;;;;5103135;28;20028;-69
2023/10/30 11:10:49;;;;;;;0.70;0.30;;;15.70;99.90;;;;;;5104387;27;20105;-69
2023/10/30 11:13:14;;;;;;;;;;;15.60;99.90;;;;;;5104063;28;20127;-69
2023/10/30 11:16:00;;;;;;;2.35;0.20;;;15.40;99.90;;;;;;5095480;27;20003;-69
2023/10/30 11:18:27;;;;;;;1.48;0.57;;;15.50;99.90;;;;;;5093079;28;20107;-68
2023/10/30 11:21:12;;;;;;;0.57;0.45;;;15.50;99.90;;;;;;5089914;28;20024;-69
2023/10/30 11:23:44;;;;;;;1.08;0.57;;;15.60;99.90;;;;;;5085474;28;20042;-71
2023/10/30 11:26:36;;;;;;;1.63;0.50;;;16.00;99.90;;;;;;5085383;28;20031;-69
2023/10/30 11:29:15;;;;;;;0.52;0.20;;;16.00;99.90;;;;;;5094417;28;20040;-69
2023/10/30 11:32:02;;;;;;;0.73;0.28;;;15.80;99.90;;;;;;5087794;28;20031;-68
2023/10/30 11:34:37;;;;;;;0.38;0.20;;;15.70;99.90;;;;;;5096660;28;20054;-67
2023/10/30 11:37:12;;;;;;;0.70;0.40;;;15.70;99.90;;;;;;5092186;28;20034;-68
2023/10/30 11:39:40;;;;;;;1.98;0.38;;;15.60;99.90;;;;;;5081273;28;20458;-69
2023/10/30 11:42:30;;;;;;;2.13;0.40;;;15.60;99.90;;;;;;5090102;28;20111;-68
2023/10/30 11:45:16;;;;;;;0.63;0.30;;;15.50;99.90;;;;;;5106664;28;20054;-68
2023/10/30 11:47:45;;;;;;;0.20;0.20;;;15.50;99.90;;;;;;5088255;28;20058;-68
2023/10/30 11:50:11;;;;;;;1.48;1.05;;;15.50;99.90;;;;;;5093831;28;20036;-69
2023/10/30 11:52:38;;;;;;;0.65;0.40;;;15.60;99.90;;;;;;5098711;28;20016;-69
2023/10/30 11:55:08;;;;;;;0.98;0.43;;;15.70;99.90;;;;;;5112837;28;20072;-70
2023/10/30 11:57:34;;;;;;;0.40;0.20;;;15.70;99.90;;;;;;5099742;28;20115;-69
2023/10/30 12:00:01;;;;;;;3.05;1.15;;;15.60;99.90;;;;;;5096541;28;20035;-70
2023/10/30 12:02:27;;;;;;;0.70;0.52;;;15.60;99.90;;;;;;5093435;28;20059;-71
2023/10/30 12:04:53;;;;;;;0.50;0.43;;;15.50;99.90;;;;;;5103906;28;20483;-70
2023/10/30 12:07:18;;;;;;;0.40;0.40;;;15.50;99.90;;;;;;5083135;28;20042;-70
2023/10/30 12:09:44;;;;;;;0.88;0.50;;;15.60;99.90;;;;;;5105273;28;20445;-69
2023/10/30 12:12:10;;;;;;;0.22;0.22;;;15.60;99.90;;;;;;5102005;28;20024;-70
2023/10/30 12:14:38;;;;;;;2.53;0.73;;;15.60;99.90;;;;;;5108824;28;20452;-68
2023/10/30 12:17:04;;;;;;;1.48;0.50;;;15.80;99.90;;;;;;5090488;28;20034;-68
2023/10/30 12:19:30;;;;;;;0.45;0.22;;;15.80;99.90;;;;;;5092255;28;20404;-69
2023/10/30 12:21:56;;;;;;;4.57;0.43;;;15.80;99.90;;;;;;5091097;28;20035;-69
2023/10/30 12:24:25;;;;;;;0.57;0.40;;;15.90;99.90;;;;;;5112704;28;20028;-69
2023/10/30 12:26:51;;;;;;;0.63;0.50;;;15.90;99.90;;;;;;5095073;28;20077;-68
2023/10/30 12:29:24;;;;;;;0.65;0.30;;;15.70;99.90;;;;;;5109790;28;20031;-69
2023/10/30 12:32:03;;;;;;;1.55;0.55;;;15.70;99.90;;;;;;5086245;28;20028;-69
2023/10/30 12:34:30;;;;;;;0.65;0.50;;;15.80;99.90;;;;;;5090812;28;20103;-69
2023/10/30 12:36:56;;;;;;;1.92;0.60;;;15.90;99.90;;;;;;5090391;28;20020;-69
2023/10/30 12:39:22;;;;;;;0.30;0.20;;;15.90;99.90;;;;;;5092641;28;20081;-69
2023/10/30 12:41:55;;;;;;;2.40;0.38;;;16.00;99.90;;;;;;5094275;28;20024;-69
2023/10/30 12:44:26;;;;;;;0.65;0.47;;;16.00;99.90;;;;;;5074926;28;20807;-69
2023/10/30 12:46:52;;;;;;;3.80;0.68;;;16.30;99.90;;;;;;5021125;28;20048;-68
2023/10/30 12:49:17;;;;;;;0.70;0.43;;;16.20;99.90;;;;;;5041965;28;20037;-68